sensor_id;sensor_type;location;lat;lon;timestamp;pressure;altitude;pressure_sealevel;temperature;humidity
10167;BME280;62970;53.130;8.244;2023-02-13T00:00:24;103858.75;;;7.16;76.63
10167;BME280;62970;53.130;8.244;2023-02-13T00:02:56;103856.16;;;7.16;76.52
10167;BME280;62970;53.130;8.244;2023-02-13T00:05:29;103862.22;;;7.17;76.71
10167;BME280;62970;53.130;8.244;2023-02-13T00:08:01;103862.22;;;7.17;76.35
10167;BME280;62970;53.130;8.244;2023-02-13T00:10:32;103856.28;;;7.19;76.63
10167;BME280;62970;53.130;8.244;2023-02-13T00:13:02;103864.97;;;7.20;76.33
10167;BME280;62970;53.130;8.244;2023-02-13T00:15:33;103856.28;;;7.19;76.46
10167;BME280;62970;53.130;8.244;2023-02-13T00:18:03;103857.19;;;7.20;76.39
10167;BME280;62970;53.130;8.244;2023-02-13T00:20:32;103858.97;;;7.21;76.41
10167;BME280;62970;53.130;8.244;2023-02-13T00:23:04;103856.38;;;7.21;76.41
10167;BME280;62970;53.130;8.244;2023-02-13T00:25:40;103856.44;;;7.22;76.58
10167;BME280;62970;53.130;8.244;2023-02-13T00:28:09;103852.94;;;7.22;76.52
10167;BME280;62970;53.130;8.244;2023-02-13T00:30:39;103852.13;;;7.23;76.70
10167;BME280;62970;53.130;8.244;2023-02-13T00:33:08;103845.16;;;7.22;76.32
10167;BME280;62970;53.130;8.244;2023-02-13T00:35:39;103848.66;;;7.22;76.68
10167;BME280;62970;53.130;8.244;2023-02-13T00:38:12;103839.97;;;7.22;76.18
10167;BME280;62970;53.130;8.244;2023-02-13T00:40:45;103843.44;;;7.22;76.71
10167;BME280;62970;53.130;8.244;2023-02-13T00:43:15;103837.44;;;7.23;76.57
10167;BME280;62970;53.130;8.244;2023-02-13T00:45:44;103827.88;;;7.22;76.14
10167;BME280;62970;53.130;8.244;2023-02-13T00:48:13;103832.13;;;7.20;75.99
10167;BME280;62970;53.130;8.244;2023-02-13T00:50:43;103834.63;;;7.19;75.98
10167;BME280;62970;53.130;8.244;2023-02-13T00:53:18;103831.91;;;7.16;76.20
10167;BME280;62970;53.130;8.244;2023-02-13T00:55:48;103834.50;;;7.16;76.49
10167;BME280;62970;53.130;8.244;2023-02-13T00:58:18;103832.75;;;7.15;76.58
10167;BME280;62970;53.130;8.244;2023-02-13T01:00:49;103831.91;;;7.16;76.15
10167;BME280;62970;53.130;8.244;2023-02-13T01:03:20;103835.47;;;7.18;76.46
10167;BME280;62970;53.130;8.244;2023-02-13T01:05:50;103839.81;;;7.19;76.38
10167;BME280;62970;53.130;8.244;2023-02-13T01:08:24;103840.66;;;7.18;76.21
10167;BME280;62970;53.130;8.244;2023-02-13T01:10:54;103845.91;;;7.19;76.24
10167;BME280;62970;53.130;8.244;2023-02-13T01:13:26;103840.69;;;7.19;76.65
10167;BME280;62970;53.130;8.244;2023-02-13T01:15:55;103845.91;;;7.19;76.19
10167;BME280;62970;53.130;8.244;2023-02-13T01:18:25;103841.63;;;7.20;76.15
10167;BME280;62970;53.130;8.244;2023-02-13T01:21:03;103832.81;;;7.16;76.45
10167;BME280;62970;53.130;8.244;2023-02-13T01:23:37;103837.16;;;7.17;76.43
10167;BME280;62970;53.130;8.244;2023-02-13T01:26:11;103837.16;;;7.17;76.14
10167;BME280;62970;53.130;8.244;2023-02-13T01:28:41;103835.41;;;7.16;75.99
10167;BME280;62970;53.130;8.244;2023-02-13T01:31:11;103836.22;;;7.15;75.91
10167;BME280;62970;53.130;8.244;2023-02-13T01:33:40;103836.16;;;7.14;76.07
10167;BME280;62970;53.130;8.244;2023-02-13T01:36:11;103837.00;;;7.13;75.95
10167;BME280;62970;53.130;8.244;2023-02-13T01:38:44;103839.53;;;7.11;76.16
10167;BME280;62970;53.130;8.244;2023-02-13T01:41:13;103825.66;;;7.11;76.02
10167;BME280;62970;53.130;8.244;2023-02-13T01:43:46;103824.78;;;7.10;75.95
10167;BME280;62970;53.130;8.244;2023-02-13T01:46:21;103814.41;;;7.10;76.00
10167;BME280;62970;53.130;8.244;2023-02-13T01:48:57;103817.88;;;7.11;76.14
10167;BME280;62970;53.130;8.244;2023-02-13T01:51:32;103820.41;;;7.09;76.01
10167;BME280;62970;53.130;8.244;2023-02-13T01:54:09;103817.00;;;7.10;76.28
10167;BME280;62970;53.130;8.244;2023-02-13T01:56:44;103819.59;;;7.10;76.20
10167;BME280;62970;53.130;8.244;2023-02-13T01:59:25;103813.50;;;7.10;76.36
10167;BME280;62970;53.130;8.244;2023-02-13T02:01:55;103803.97;;;7.09;76.40
10167;BME280;62970;53.130;8.244;2023-02-13T02:04:29;103804.78;;;7.08;76.19
10167;BME280;62970;53.130;8.244;2023-02-13T02:07:09;103807.38;;;7.08;76.56
10167;BME280;62970;53.130;8.244;2023-02-13T02:09:43;103806.50;;;7.07;76.15
10167;BME280;62970;53.130;8.244;2023-02-13T02:12:21;103809.09;;;7.07;76.56
10167;BME280;62970;53.130;8.244;2023-02-13T02:14:55;103812.50;;;7.06;76.37
10167;BME280;62970;53.130;8.244;2023-02-13T02:17:28;103804.72;;;7.06;76.23
10167;BME280;62970;53.130;8.244;2023-02-13T02:20:12;103805.56;;;7.05;76.25
10167;BME280;62970;53.130;8.244;2023-02-13T02:23:25;103805.50;;;7.04;76.38
10167;BME280;62970;53.130;8.244;2023-02-13T02:26:48;103803.72;;;7.03;76.13
10167;BME280;62970;53.130;8.244;2023-02-13T02:29:58;103798.47;;;7.01;76.34
10167;BME280;62970;53.130;8.244;2023-02-13T02:32:51;103801.00;;;6.99;76.38
10167;BME280;62970;53.130;8.244;2023-02-13T02:35:31;103800.19;;;7.00;76.43
10167;BME280;62970;53.130;8.244;2023-02-13T02:38:28;103803.53;;;6.98;76.67
10167;BME280;62970;53.130;8.244;2023-02-13T02:41:08;103796.66;;;6.98;76.32
10167;BME280;62970;53.130;8.244;2023-02-13T02:44:10;103794.88;;;6.97;76.60
10167;BME280;62970;53.130;8.244;2023-02-13T02:47:00;103790.56;;;6.98;76.17
10167;BME280;62970;53.130;8.244;2023-02-13T02:49:57;103783.56;;;6.95;76.38
10167;BME280;62970;53.130;8.244;2023-02-13T02:52:41;103779.25;;;6.96;76.38
10167;BME280;62970;53.130;8.244;2023-02-13T02:55:21;103774.06;;;6.96;76.26
10167;BME280;62970;53.130;8.244;2023-02-13T02:58:04;103768.88;;;6.96;76.72
10167;BME280;62970;53.130;8.244;2023-02-13T03:00:50;103774.06;;;6.96;76.59
10167;BME280;62970;53.130;8.244;2023-02-13T03:03:34;103769.75;;;6.96;76.56
10167;BME280;62970;53.130;8.244;2023-02-13T03:06:24;103769.69;;;6.95;76.71
10167;BME280;62970;53.130;8.244;2023-02-13T03:08:59;103771.41;;;6.94;76.71
10167;BME280;62970;53.130;8.244;2023-02-13T03:11:47;103771.41;;;6.94;76.33
10167;BME280;62970;53.130;8.244;2023-02-13T03:14:33;103770.53;;;6.94;76.74
10167;BME280;62970;53.130;8.244;2023-02-13T03:17:02;103771.41;;;6.94;76.58
10167;BME280;62970;53.130;8.244;2023-02-13T03:20:00;103772.22;;;6.93;76.92
10167;BME280;62970;53.130;8.244;2023-02-13T03:23:01;103773.06;;;6.92;76.69
10167;BME280;62970;53.130;8.244;2023-02-13T03:25:37;103765.22;;;6.91;76.19
10167;BME280;62970;53.130;8.244;2023-02-13T03:28:16;103766.97;;;6.92;76.44
10167;BME280;62970;53.130;8.244;2023-02-13T03:31:05;103760.91;;;6.91;76.33
10167;BME280;62970;53.130;8.244;2023-02-13T03:33:57;103754.84;;;6.91;76.29
10167;BME280;62970;53.130;8.244;2023-02-13T03:36:40;103761.75;;;6.90;76.10
10167;BME280;62970;53.130;8.244;2023-02-13T03:39:48;103763.38;;;6.88;76.17
10167;BME280;62970;53.130;8.244;2023-02-13T03:42:28;103758.13;;;6.87;76.22
10167;BME280;62970;53.130;8.244;2023-02-13T03:45:04;103755.56;;;6.87;76.67
10167;BME280;62970;53.130;8.244;2023-02-13T03:47:55;103774.53;;;6.86;76.66
10167;BME280;62970;53.130;8.244;2023-02-13T03:50:27;103756.31;;;6.84;76.22
10167;BME280;62970;53.130;8.244;2023-02-13T03:52:59;103767.56;;;6.85;76.44
10167;BME280;62970;53.130;8.244;2023-02-13T03:55:45;103757.13;;;6.83;76.24
10167;BME280;62970;53.130;8.244;2023-02-13T03:58:30;103762.28;;;6.82;76.36
10167;BME280;62970;53.130;8.244;2023-02-13T04:01:16;103755.38;;;6.82;76.40
10167;BME280;62970;53.130;8.244;2023-02-13T04:03:54;103763.09;;;6.81;76.63
10167;BME280;62970;53.130;8.244;2023-02-13T04:06:31;103767.41;;;6.80;76.35
10167;BME280;62970;53.130;8.244;2023-02-13T04:09:04;103757.84;;;6.79;76.60
10167;BME280;62970;53.130;8.244;2023-02-13T04:11:41;103756.00;;;6.77;76.49
10167;BME280;62970;53.130;8.244;2023-02-13T04:14:20;103769.81;;;6.76;76.42
10167;BME280;62970;53.130;8.244;2023-02-13T04:16:56;103767.16;;;6.74;76.61
10167;BME280;62970;53.130;8.244;2023-02-13T04:19:35;103774.13;;;6.75;76.57
10167;BME280;62970;53.130;8.244;2023-02-13T04:22:05;103771.50;;;6.75;76.63
10167;BME280;62970;53.130;8.244;2023-02-13T04:24:34;103774.13;;;6.75;76.63
10167;BME280;62970;53.130;8.244;2023-02-13T04:27:06;103774.94;;;6.74;76.18
10167;BME280;62970;53.130;8.244;2023-02-13T04:29:36;103782.72;;;6.74;76.60
10167;BME280;62970;53.130;8.244;2023-02-13T04:32:06;103790.50;;;6.74;76.54
10167;BME280;62970;53.130;8.244;2023-02-13T04:34:37;103782.72;;;6.74;76.06
10167;BME280;62970;53.130;8.244;2023-02-13T04:37:07;103777.53;;;6.74;76.24
10167;BME280;62970;53.130;8.244;2023-02-13T04:39:36;103783.53;;;6.73;76.43
10167;BME280;62970;53.130;8.244;2023-02-13T04:42:10;103784.31;;;6.71;76.60
10167;BME280;62970;53.130;8.244;2023-02-13T04:44:39;103780.06;;;6.73;76.26
10167;BME280;62970;53.130;8.244;2023-02-13T04:47:09;103784.38;;;6.72;76.36
10167;BME280;62970;53.130;8.244;2023-02-13T04:49:42;103777.47;;;6.73;76.42
10167;BME280;62970;53.130;8.244;2023-02-13T04:52:12;103776.66;;;6.74;76.17
10167;BME280;62970;53.130;8.244;2023-02-13T04:54:43;103770.56;;;6.73;76.13
10167;BME280;62970;53.130;8.244;2023-02-13T04:57:23;103773.09;;;6.72;76.66
10167;BME280;62970;53.130;8.244;2023-02-13T04:59:52;103777.47;;;6.73;76.28
10167;BME280;62970;53.130;8.244;2023-02-13T05:02:22;103776.59;;;6.72;76.50
10167;BME280;62970;53.130;8.244;2023-02-13T05:04:51;103774.00;;;6.72;76.49
10167;BME280;62970;53.130;8.244;2023-02-13T05:07:22;103764.50;;;6.73;76.64
10167;BME280;62970;53.130;8.244;2023-02-13T05:09:52;103768.88;;;6.74;76.22
10167;BME280;62970;53.130;8.244;2023-02-13T05:12:25;103774.81;;;6.71;76.08
10167;BME280;62970;53.130;8.244;2023-02-13T05:14:58;103773.94;;;6.71;76.07
10167;BME280;62970;53.130;8.244;2023-02-13T05:17:32;103773.81;;;6.67;76.37
10167;BME280;62970;53.130;8.244;2023-02-13T05:20:04;103776.34;;;6.66;76.05
10167;BME280;62970;53.130;8.244;2023-02-13T05:22:33;103771.16;;;6.66;76.56
10167;BME280;62970;53.130;8.244;2023-02-13T05:25:15;103780.72;;;6.67;76.60
10167;BME280;62970;53.130;8.244;2023-02-13T05:27:48;103791.91;;;6.66;76.51
10167;BME280;62970;53.130;8.244;2023-02-13T05:30:18;103790.25;;;6.68;76.22
10167;BME280;62970;53.130;8.244;2023-02-13T05:32:44;103780.75;;;6.68;76.62
10167;BME280;62970;53.130;8.244;2023-02-13T05:35:16;103786.78;;;6.67;76.46
10167;BME280;62970;53.130;8.244;2023-02-13T05:37:46;103782.47;;;6.68;76.54
10167;BME280;62970;53.130;8.244;2023-02-13T05:40:16;103783.34;;;6.68;76.18
10167;BME280;62970;53.130;8.244;2023-02-13T05:42:49;103782.53;;;6.70;76.57
10167;BME280;62970;53.130;8.244;2023-02-13T05:45:29;103782.53;;;6.70;76.20
10167;BME280;62970;53.130;8.244;2023-02-13T05:47:58;103774.81;;;6.71;76.57
10167;BME280;62970;53.130;8.244;2023-02-13T05:50:31;103779.19;;;6.72;76.16
10167;BME280;62970;53.130;8.244;2023-02-13T05:53:02;103780.06;;;6.73;76.07
10167;BME280;62970;53.130;8.244;2023-02-13T05:55:34;103783.34;;;6.68;76.19
10167;BME280;62970;53.130;8.244;2023-02-13T05:58:06;103790.25;;;6.68;76.63
10167;BME280;62970;53.130;8.244;2023-02-13T06:00:37;103789.44;;;6.69;76.12
10167;BME280;62970;53.130;8.244;2023-02-13T06:03:06;103781.59;;;6.67;76.54
10167;BME280;62970;53.130;8.244;2023-02-13T06:05:38;103782.47;;;6.68;76.63
10167;BME280;62970;53.130;8.244;2023-02-13T06:08:08;103789.44;;;6.69;76.39
10167;BME280;62970;53.130;8.244;2023-02-13T06:10:37;103794.69;;;6.71;76.71
10167;BME280;62970;53.130;8.244;2023-02-13T06:13:10;103797.28;;;6.71;76.68
10167;BME280;62970;53.130;8.244;2023-02-13T06:15:39;103794.69;;;6.71;76.15
10167;BME280;62970;53.130;8.244;2023-02-13T06:18:11;103798.03;;;6.68;76.47
10167;BME280;62970;53.130;8.244;2023-02-13T06:20:42;103803.22;;;6.68;76.08
10167;BME280;62970;53.130;8.244;2023-02-13T06:23:14;103811.88;;;6.68;76.53
10167;BME280;62970;53.130;8.244;2023-02-13T06:25:49;103811.00;;;6.68;76.48
10167;BME280;62970;53.130;8.244;2023-02-13T06:28:22;103809.28;;;6.68;76.49
10167;BME280;62970;53.130;8.244;2023-02-13T06:30:52;103815.31;;;6.67;76.60
10167;BME280;62970;53.130;8.244;2023-02-13T06:33:24;103810.13;;;6.67;76.60
10167;BME280;62970;53.130;8.244;2023-02-13T06:35:57;103809.22;;;6.67;76.39
10167;BME280;62970;53.130;8.244;2023-02-13T06:38:27;103817.00;;;6.67;76.27
10167;BME280;62970;53.130;8.244;2023-02-13T06:43:38;103819.66;;;6.68;76.14
10167;BME280;62970;53.130;8.244;2023-02-13T06:46:08;103814.47;;;6.68;76.45
10167;BME280;62970;53.130;8.244;2023-02-13T11:07:25;103848.69;;;7.69;74.70
10167;BME280;62970;53.130;8.244;2023-02-13T11:17:42;103837.03;;;7.81;74.43
10167;BME280;62970;53.130;8.244;2023-02-13T11:25:35;103830.28;;;7.86;73.99
10167;BME280;62970;53.130;8.244;2023-02-13T11:28:12;103822.56;;;7.88;73.73
10167;BME280;62970;53.130;8.244;2023-02-13T11:41:30;103811.53;;;7.95;73.85
10167;BME280;62970;53.130;8.244;2023-02-13T11:44:23;103815.06;;;7.97;73.73
10167;BME280;62970;53.130;8.244;2023-02-13T11:47:00;103817.84;;;8.02;73.92
10167;BME280;62970;53.130;8.244;2023-02-13T11:49:32;103818.81;;;8.05;73.63
10167;BME280;62970;53.130;8.244;2023-02-13T11:52:25;103824.06;;;8.07;73.42
10167;BME280;62970;53.130;8.244;2023-02-13T11:54:59;103821.53;;;8.08;73.12
10167;BME280;62970;53.130;8.244;2023-02-13T12:02:49;103821.63;;;8.11;73.44
10167;BME280;62970;53.130;8.244;2023-02-13T12:05:23;103817.28;;;8.10;73.37
10167;BME280;62970;53.130;8.244;2023-02-13T12:10:30;103813.06;;;8.14;72.76
10167;BME280;62970;53.130;8.244;2023-02-13T12:15:54;103811.41;;;8.16;73.20
10167;BME280;62970;53.130;8.244;2023-02-13T12:18:34;103814.09;;;8.19;73.15
10167;BME280;62970;53.130;8.244;2023-02-13T12:23:51;103800.38;;;8.23;73.27
10167;BME280;62970;53.130;8.244;2023-02-13T12:26:33;103795.22;;;8.24;73.09
10167;BME280;62970;53.130;8.244;2023-02-13T12:29:44;103797.81;;;8.24;72.79
10167;BME280;62970;53.130;8.244;2023-02-13T12:32:24;103798.66;;;8.23;72.20
10167;BME280;62970;53.130;8.244;2023-02-13T12:35:30;103795.06;;;8.20;72.19
10167;BME280;62970;53.130;8.244;2023-02-13T12:38:08;103801.94;;;8.18;72.48
10167;BME280;62970;53.130;8.244;2023-02-13T12:41:17;103789.72;;;8.15;72.43
10167;BME280;62970;53.130;8.244;2023-02-13T12:47:14;103788.94;;;8.18;72.03
10167;BME280;62970;53.130;8.244;2023-02-13T12:53:29;103789.00;;;8.19;72.17
10167;BME280;62970;53.130;8.244;2023-02-13T12:56:38;103789.03;;;8.21;72.11
10167;BME280;62970;53.130;8.244;2023-02-13T12:59:25;103782.19;;;8.23;71.61
10167;BME280;62970;53.130;8.244;2023-02-13T13:08:06;103778.75;;;8.24;72.01
10167;BME280;62970;53.130;8.244;2023-02-13T13:10:55;103780.50;;;8.25;71.88
10167;BME280;62970;53.130;8.244;2023-02-13T13:13:41;103773.50;;;8.22;71.70
10167;BME280;62970;53.130;8.244;2023-02-13T13:16:25;103776.34;;;8.30;71.30
10167;BME280;62970;53.130;8.244;2023-02-13T13:19:09;103778.13;;;8.31;71.04
10167;BME280;62970;53.130;8.244;2023-02-13T13:21:47;103771.19;;;8.32;71.50
10167;BME280;62970;53.130;8.244;2023-02-13T13:24:40;103772.03;;;8.31;70.97
10167;BME280;62970;53.130;8.244;2023-02-13T13:27:22;103772.88;;;8.30;70.80
10167;BME280;62970;53.130;8.244;2023-02-13T13:29:56;103764.19;;;8.29;71.12
10167;BME280;62970;53.130;8.244;2023-02-13T13:32:30;103765.13;;;8.31;70.97
10167;BME280;62970;53.130;8.244;2023-02-13T13:35:03;103756.47;;;8.32;70.97
10167;BME280;62970;53.130;8.244;2023-02-13T13:37:37;103753.09;;;8.35;71.01
10167;BME280;62970;53.130;8.244;2023-02-13T13:40:30;103756.59;;;8.35;70.61
10167;BME280;62970;53.130;8.244;2023-02-13T13:43:17;103751.38;;;8.35;71.09
10167;BME280;62970;53.130;8.244;2023-02-13T13:46:01;103748.78;;;8.35;70.76
10167;BME280;62970;53.130;8.244;2023-02-13T13:48:57;103749.63;;;8.34;70.89
10167;BME280;62970;53.130;8.244;2023-02-13T13:51:33;103743.53;;;8.34;70.98
10167;BME280;62970;53.130;8.244;2023-02-13T13:54:23;103741.66;;;8.30;71.08
10167;BME280;62970;53.130;8.244;2023-02-13T13:57:06;103745.19;;;8.32;71.12
10167;BME280;62970;53.130;8.244;2023-02-13T14:00:23;103744.41;;;8.34;70.88
10167;BME280;62970;53.130;8.244;2023-02-13T14:03:22;103737.41;;;8.32;71.12
10167;BME280;62970;53.130;8.244;2023-02-13T14:06:10;103739.16;;;8.33;70.96
10167;BME280;62970;53.130;8.244;2023-02-13T14:11:41;103740.84;;;8.31;70.73
10167;BME280;62970;53.130;8.244;2023-02-13T14:20:27;103738.00;;;8.23;70.90
10167;BME280;62970;53.130;8.244;2023-02-13T14:23:18;103739.81;;;8.25;71.02
10167;BME280;62970;53.130;8.244;2023-02-13T14:29:09;103722.59;;;8.29;71.29
10167;BME280;62970;53.130;8.244;2023-02-13T14:31:53;103722.69;;;8.32;70.96
10167;BME280;62970;53.130;8.244;2023-02-13T14:34:34;103717.59;;;8.35;70.96
10167;BME280;62970;53.130;8.244;2023-02-13T14:37:32;103711.56;;;8.36;70.69
10167;BME280;62970;53.130;8.244;2023-02-13T14:43:48;103711.44;;;8.33;70.91
10167;BME280;62970;53.130;8.244;2023-02-13T14:46:31;103719.31;;;8.35;70.54
10167;BME280;62970;53.130;8.244;2023-02-13T14:49:11;103707.09;;;8.32;70.82
10167;BME280;62970;53.130;8.244;2023-02-13T14:51:52;103713.16;;;8.33;71.05
10167;BME280;62970;53.130;8.244;2023-02-13T14:54:32;103703.66;;;8.33;71.04
10167;BME280;62970;53.130;8.244;2023-02-13T14:57:15;103701.94;;;8.34;70.83
10167;BME280;62970;53.130;8.244;2023-02-13T15:00:06;103693.19;;;8.32;70.67
10167;BME280;62970;53.130;8.244;2023-02-13T15:02:45;103695.81;;;8.32;70.74
10167;BME280;62970;53.130;8.244;2023-02-13T15:05:30;103694.13;;;8.34;70.89
10167;BME280;62970;53.130;8.244;2023-02-13T15:08:07;103697.72;;;8.37;71.09
10167;BME280;62970;53.130;8.244;2023-02-13T15:10:52;103695.13;;;8.37;70.92
10167;BME280;62970;53.130;8.244;2023-02-13T15:13:33;103694.19;;;8.35;71.05
10167;BME280;62970;53.130;8.244;2023-02-13T15:29:26;103690.25;;;8.21;70.82
10167;BME280;62970;53.130;8.244;2023-02-13T15:31:58;103686.69;;;8.17;70.48
10167;BME280;62970;53.130;8.244;2023-02-13T15:34:30;103694.38;;;8.14;70.88
10167;BME280;62970;53.130;8.244;2023-02-13T15:37:21;103689.03;;;8.10;71.03
10167;BME280;62970;53.130;8.244;2023-02-13T15:39:51;103686.38;;;8.08;70.61
10167;BME280;62970;53.130;8.244;2023-02-13T15:50:26;103687.81;;;7.99;71.00
10167;BME280;62970;53.130;8.244;2023-02-13T15:55:34;103690.34;;;7.97;70.88
10167;BME280;62970;53.130;8.244;2023-02-13T15:58:10;103684.16;;;7.93;70.71
10167;BME280;62970;53.130;8.244;2023-02-13T16:03:17;103690.16;;;7.91;70.92
10167;BME280;62970;53.130;8.244;2023-02-13T16:05:53;103685.69;;;7.87;70.99
10167;BME280;62970;53.130;8.244;2023-02-13T16:08:31;103699.50;;;7.86;70.99
10167;BME280;62970;53.130;8.244;2023-02-13T16:11:31;103695.88;;;7.81;71.14
10167;BME280;62970;53.130;8.244;2023-02-13T16:14:19;103703.56;;;7.78;70.88
10167;BME280;62970;53.130;8.244;2023-02-13T16:16:53;103699.97;;;7.74;71.29
10167;BME280;62970;53.130;8.244;2023-02-13T17:35:15;103698.22;;;7.25;71.78
10167;BME280;62970;53.130;8.244;2023-02-13T17:45:34;103692.97;;;7.24;71.25
10167;BME280;62970;53.130;8.244;2023-02-13T18:19:15;103692.84;;;7.21;71.55
10167;BME280;62970;53.130;8.244;2023-02-13T18:21:45;103692.91;;;7.22;71.50
10167;BME280;62970;53.130;8.244;2023-02-13T18:24:15;103685.13;;;7.22;71.66
10167;BME280;62970;53.130;8.244;2023-02-13T18:26:45;103685.25;;;7.25;71.85
10167;BME280;62970;53.130;8.244;2023-02-13T18:29:15;103690.44;;;7.25;71.56
10167;BME280;62970;53.130;8.244;2023-02-13T18:31:44;103680.81;;;7.23;71.61
10167;BME280;62970;53.130;8.244;2023-02-13T18:34:21;103687.72;;;7.22;71.90
10167;BME280;62970;53.130;8.244;2023-02-13T18:36:51;103697.22;;;7.22;71.41
10167;BME280;62970;53.130;8.244;2023-02-13T18:39:21;103692.72;;;7.18;71.31
10167;BME280;62970;53.130;8.244;2023-02-13T18:41:50;103708.22;;;7.16;71.43
10167;BME280;62970;53.130;8.244;2023-02-13T18:44:20;103703.63;;;7.09;71.14
10167;BME280;62970;53.130;8.244;2023-02-13T18:46:50;103694.69;;;7.01;71.24
10167;BME280;62970;53.130;8.244;2023-02-13T18:49:23;103697.81;;;6.92;71.28
10167;BME280;62970;53.130;8.244;2023-02-13T18:51:53;103704.44;;;6.84;71.12
10167;BME280;62970;53.130;8.244;2023-02-13T18:54:23;103694.53;;;6.74;71.04
10167;BME280;62970;53.130;8.244;2023-02-13T18:56:54;103701.09;;;6.64;71.30
10167;BME280;62970;53.130;8.244;2023-02-13T18:59:27;103698.84;;;6.51;71.19
10167;BME280;62970;53.130;8.244;2023-02-13T19:01:58;103699.19;;;6.38;70.99
10167;BME280;62970;53.130;8.244;2023-02-13T19:04:31;103692.56;;;6.24;70.94
10167;BME280;62970;53.130;8.244;2023-02-13T19:07:07;103698.94;;;6.11;71.20
10167;BME280;62970;53.130;8.244;2023-02-13T19:09:44;103694.91;;;5.97;71.35
10167;BME280;62970;53.130;8.244;2023-02-13T19:12:15;103692.63;;;5.84;71.20
10167;BME280;62970;53.130;8.244;2023-02-13T19:14:47;103690.34;;;5.70;71.10
10167;BME280;62970;53.130;8.244;2023-02-13T19:17:19;103687.25;;;5.58;71.62
10167;BME280;62970;53.130;8.244;2023-02-13T19:19:52;103694.53;;;5.48;71.50
10167;BME280;62970;53.130;8.244;2023-02-13T19:22:31;103688.81;;;5.35;71.21
10167;BME280;62970;53.130;8.244;2023-02-13T19:25:05;103687.56;;;5.27;71.84
10167;BME280;62970;53.130;8.244;2023-02-13T19:27:44;103692.41;;;5.20;71.63
10167;BME280;62970;53.130;8.244;2023-02-13T19:30:24;103692.81;;;5.10;71.83
10167;BME280;62970;53.130;8.244;2023-02-13T19:32:56;103694.16;;;5.01;71.87
10167;BME280;62970;53.130;8.244;2023-02-13T19:35:43;103690.28;;;4.92;71.70
10167;BME280;62970;53.130;8.244;2023-02-13T19:38:16;103698.66;;;4.86;71.96
10167;BME280;62970;53.130;8.244;2023-02-13T19:40:57;103700.78;;;4.77;72.15
10167;BME280;62970;53.130;8.244;2023-02-13T19:43:34;103703.06;;;4.71;71.84
10167;BME280;62970;53.130;8.244;2023-02-13T19:46:10;103695.84;;;4.64;71.79
10167;BME280;62970;53.130;8.244;2023-02-13T19:48:59;103703.25;;;4.56;72.00
10167;BME280;62970;53.130;8.244;2023-02-13T19:51:41;103701.25;;;4.51;72.17
10167;BME280;62970;53.130;8.244;2023-02-13T19:54:12;103699.19;;;4.43;71.99
10167;BME280;62970;53.130;8.244;2023-02-13T19:56:44;103698.16;;;4.40;72.16
10167;BME280;62970;53.130;8.244;2023-02-13T19:59:19;103691.81;;;4.33;72.26
10167;BME280;62970;53.130;8.244;2023-02-13T20:02:07;103692.31;;;4.26;71.69
10167;BME280;62970;53.130;8.244;2023-02-13T20:04:42;103686.06;;;4.21;72.10
10167;BME280;62970;53.130;8.244;2023-02-13T20:07:28;103690.91;;;4.15;71.75
10167;BME280;62970;53.130;8.244;2023-02-13T20:10:10;103685.44;;;4.09;72.01
10167;BME280;62970;53.130;8.244;2023-02-13T20:12:59;103687.75;;;4.03;71.56
10167;BME280;62970;53.130;8.244;2023-02-13T20:15:40;103686.69;;;3.99;71.84
10167;BME280;62970;53.130;8.244;2023-02-13T20:18:21;103684.63;;;3.92;72.02
10167;BME280;62970;53.130;8.244;2023-02-13T20:21:05;103686.16;;;3.89;71.81
10167;BME280;62970;53.130;8.244;2023-02-13T20:23:53;103685.94;;;3.84;71.70
10167;BME280;62970;53.130;8.244;2023-02-13T20:26:38;103684.00;;;3.80;72.12
10167;BME280;62970;53.130;8.244;2023-02-13T20:29:11;103677.66;;;3.73;72.07
10167;BME280;62970;53.130;8.244;2023-02-13T20:31:49;103672.34;;;3.70;71.90
10167;BME280;62970;53.130;8.244;2023-02-13T20:34:27;103676.38;;;3.65;71.85
10167;BME280;62970;53.130;8.244;2023-02-13T20:37:03;103671.06;;;3.62;71.78
10167;BME280;62970;53.130;8.244;2023-02-13T20:39:51;103676.81;;;3.57;72.21
10167;BME280;62970;53.130;8.244;2023-02-13T20:42:32;103671.34;;;3.51;71.90
10167;BME280;62970;53.130;8.244;2023-02-13T20:45:04;103677.31;;;3.50;72.29
10167;BME280;62970;53.130;8.244;2023-02-13T20:47:42;103670.13;;;3.44;71.74
10167;BME280;62970;53.130;8.244;2023-02-13T20:50:20;103663.78;;;3.37;71.96
10167;BME280;62970;53.130;8.244;2023-02-13T20:53:09;103670.56;;;3.35;71.98
10167;BME280;62970;53.130;8.244;2023-02-13T20:55:51;103672.00;;;3.30;72.01
10167;BME280;62970;53.130;8.244;2023-02-13T20:58:24;103675.22;;;3.26;72.21
10167;BME280;62970;53.130;8.244;2023-02-13T21:00:53;103686.19;;;3.22;71.72
10167;BME280;62970;53.130;8.244;2023-02-13T21:03:26;103686.75;;;3.17;71.98
10167;BME280;62970;53.130;8.244;2023-02-13T21:05:57;103689.25;;;3.15;72.05
10167;BME280;62970;53.130;8.244;2023-02-13T21:08:28;103674.50;;;3.12;71.87
10167;BME280;62970;53.130;8.244;2023-02-13T21:11:06;103675.88;;;3.06;71.82
10167;BME280;62970;53.130;8.244;2023-02-13T21:13:40;103676.69;;;3.05;72.20
10167;BME280;62970;53.130;8.244;2023-02-13T21:16:23;103675.63;;;3.01;72.02
10167;BME280;62970;53.130;8.244;2023-02-13T21:18:56;103674.59;;;2.98;71.68
10167;BME280;62970;53.130;8.244;2023-02-13T21:21:35;103669.19;;;2.93;71.68
10167;BME280;62970;53.130;8.244;2023-02-13T21:24:13;103670.72;;;2.90;71.68
10167;BME280;62970;53.130;8.244;2023-02-13T21:26:49;103672.28;;;2.88;71.93
10167;BME280;62970;53.130;8.244;2023-02-13T21:29:25;103664.31;;;2.83;71.86
10167;BME280;62970;53.130;8.244;2023-02-13T21:31:54;103673.56;;;2.79;72.09
10167;BME280;62970;53.130;8.244;2023-02-13T21:34:24;103681.28;;;2.79;71.75
10167;BME280;62970;53.130;8.244;2023-02-13T21:36:55;103676.78;;;2.75;71.67
10167;BME280;62970;53.130;8.244;2023-02-13T21:39:27;103680.16;;;2.74;71.60
10167;BME280;62970;53.130;8.244;2023-02-13T21:42:02;103671.38;;;2.71;71.74